createdAt,value
2023-03-16T00:02:04.217Z,100250.53
2023-03-16T00:04:31.914Z,100246.25
2023-03-16T00:06:59.541Z,100241.97
2023-03-16T00:09:31.505Z,100252.59
2023-03-16T00:11:59.347Z,100256.13
2023-03-16T00:14:26.972Z,100247.56
2023-03-16T00:16:54.581Z,100244.16
2023-03-16T00:19:23.086Z,100243.38
2023-03-16T00:21:51.802Z,100252.13
2023-03-16T00:24:19.731Z,100241.75
2023-03-16T00:26:47.323Z,100253.22
2023-03-16T00:29:14.961Z,100251.69
2023-03-16T00:31:44.193Z,100255.31
2023-03-16T00:34:12.292Z,100254.53
2023-03-16T00:36:40.000Z,100240.59
2023-03-16T00:39:07.697Z,100235.34
2023-03-16T00:41:38.129Z,100236.31
2023-03-16T00:44:05.986Z,100229.34
2023-03-16T00:46:33.793Z,100224.22
2023-03-16T00:49:02.882Z,100224.22
2023-03-16T00:51:33.825Z,100233.00
2023-03-16T00:54:01.480Z,100234.78
2023-03-16T00:56:29.189Z,100230.28
2023-03-16T00:58:58.200Z,100227.41
2023-03-16T01:01:26.518Z,100227.16
2023-03-16T01:03:54.645Z,100216.41
2023-03-16T01:06:22.374Z,100218.66
2023-03-16T01:08:50.256Z,100220.75
2023-03-16T01:11:18.428Z,100227.22
2023-03-16T01:13:47.220Z,100234.47
2023-03-16T01:16:15.040Z,100233.06
2023-03-16T01:18:42.831Z,100226.72
2023-03-16T01:21:10.516Z,100225.75
2023-03-16T01:23:38.688Z,100223.84
2023-03-16T01:26:06.267Z,100228.19
2023-03-16T01:28:34.452Z,100231.72
2023-03-16T01:31:02.429Z,100216.94
2023-03-16T01:33:30.054Z,100211.69
2023-03-16T01:35:58.264Z,100207.41
2023-03-16T01:38:25.857Z,100210.97
2023-03-16T01:40:53.876Z,100196.03
2023-03-16T01:43:21.677Z,100200.38
2023-03-16T01:45:49.455Z,100194.22
2023-03-16T01:48:17.417Z,100188.09
2023-03-16T01:50:45.207Z,100186.25
2023-03-16T01:53:13.094Z,100176.44
2023-03-16T01:55:40.677Z,100173.34
2023-03-16T01:58:08.334Z,100168.47
2023-03-16T02:00:36.537Z,100163.63
2023-03-16T02:03:04.134Z,100170.13
2023-03-16T02:05:31.753Z,100159.25
2023-03-16T02:07:59.777Z,100165.72
2023-03-16T02:10:27.537Z,100172.50
2023-03-16T02:12:55.548Z,100166.06
2023-03-16T02:15:23.148Z,100157.88
2023-03-16T02:17:50.708Z,100148.97
2023-03-16T02:20:18.374Z,100154.13
2023-03-16T02:22:45.927Z,100147.84
2023-03-16T02:25:14.592Z,100133.63
2023-03-16T02:27:42.186Z,100137.91
2023-03-16T02:30:09.831Z,100132.50
2023-03-16T02:32:37.424Z,100127.94
2023-03-16T02:35:05.380Z,100127.00
2023-03-16T02:37:35.122Z,100121.75
2023-03-16T02:40:03.803Z,100119.28
2023-03-16T02:42:33.672Z,100129.78
2023-03-16T02:45:01.299Z,100126.31
2023-03-16T02:47:28.960Z,100113.16
2023-03-16T02:49:57.139Z,100111.44
2023-03-16T02:52:24.762Z,100117.56
2023-03-16T02:54:52.331Z,100110.50
2023-03-16T02:57:21.299Z,100105.19
2023-03-16T02:59:48.874Z,100113.03
2023-03-16T03:02:17.013Z,100105.19
2023-03-16T03:04:46.481Z,100100.97
2023-03-16T03:07:14.377Z,100108.97
2023-03-16T03:09:43.167Z,100105.63
2023-03-16T03:12:10.886Z,100106.63
2023-03-16T03:14:39.429Z,100104.91
2023-03-16T03:17:07.448Z,100096.25
2023-03-16T03:19:35.380Z,100114.66
2023-03-16T03:22:04.320Z,100106.78
2023-03-16T03:24:31.887Z,100105.84
2023-03-16T03:27:00.818Z,100101.19
2023-03-16T03:29:34.496Z,100100.22
2023-03-16T03:32:02.376Z,100097.44
2023-03-16T03:34:29.959Z,100086.84
2023-03-16T03:36:57.489Z,100082.06
2023-03-16T03:39:25.929Z,100079.06
2023-03-16T03:41:54.727Z,100086.75
2023-03-16T03:44:22.587Z,100080.38
2023-03-16T03:46:50.294Z,100075.75
2023-03-16T03:49:17.874Z,100082.50
2023-03-16T03:51:45.852Z,100072.59
2023-03-16T03:54:13.482Z,100070.59
2023-03-16T03:56:41.016Z,100078.19
2023-03-16T03:59:08.571Z,100084.13
2023-03-16T04:01:36.265Z,100068.28
2023-03-16T04:04:05.406Z,100069.03
2023-03-16T04:06:33.174Z,100067.34
2023-03-16T04:09:01.151Z,100071.63
2023-03-16T04:11:28.720Z,100073.19
2023-03-16T04:13:56.286Z,100067.81
2023-03-16T04:16:27.143Z,100066.03
2023-03-16T04:18:54.751Z,100057.28
2023-03-16T04:21:22.361Z,100060.59
2023-03-16T04:23:49.949Z,100057.91
2023-03-16T04:26:18.069Z,100049.06
2023-03-16T04:28:46.022Z,100053.41
2023-03-16T04:31:14.158Z,100047.19
2023-03-16T04:33:42.772Z,100053.41
2023-03-16T04:36:10.361Z,100047.31
2023-03-16T04:38:37.981Z,100038.41
2023-03-16T04:41:06.123Z,100038.22
2023-03-16T04:43:36.443Z,100031.94
2023-03-16T04:46:04.144Z,100024.81
2023-03-16T04:48:32.448Z,100023.03
2023-03-16T04:51:01.047Z,100027.38
2023-03-16T04:53:29.250Z,100027.22
2023-03-16T04:55:56.807Z,100021.94
2023-03-16T04:58:24.580Z,100026.38
2023-03-16T05:00:52.228Z,100019.22
2023-03-16T05:03:19.776Z,100014.78
2023-03-16T05:05:47.696Z,100027.81
2023-03-16T05:08:15.351Z,100017.19
2023-03-16T05:10:43.209Z,100004.00
2023-03-16T05:13:10.762Z,99997.84
2023-03-16T05:15:38.358Z,100002.19
2023-03-16T05:18:06.528Z,100002.19
2023-03-16T05:20:34.144Z,99999.53
2023-03-16T05:23:01.828Z,100002.06
2023-03-16T05:25:29.416Z,99994.97
2023-03-16T05:27:57.106Z,99994.03
2023-03-16T05:30:25.533Z,99988.81
2023-03-16T05:32:54.833Z,99991.31
2023-03-16T05:35:24.185Z,99992.06
2023-03-16T05:37:51.966Z,99996.34
2023-03-16T05:40:19.546Z,99997.16
2023-03-16T05:42:47.128Z,100003.13
2023-03-16T05:45:14.895Z,99998.63
2023-03-16T05:47:42.468Z,99990.63
2023-03-16T05:50:11.448Z,99996.84
2023-03-16T05:52:39.088Z,99997.72
2023-03-16T05:55:07.936Z,99994.16
2023-03-16T05:57:35.572Z,99994.16
2023-03-16T06:00:11.320Z,100001.13
2023-03-16T06:02:39.022Z,100003.56
2023-03-16T06:05:07.523Z,100016.69
2023-03-16T06:07:35.193Z,100012.28
2023-03-16T06:10:02.951Z,100005.13
2023-03-16T06:12:30.578Z,100001.38
2023-03-16T06:14:58.312Z,100007.44
2023-03-16T06:17:25.987Z,100016.03
2023-03-16T06:19:54.195Z,100003.50
2023-03-16T06:22:21.976Z,100001.41
2023-03-16T06:24:49.571Z,100005.56
2023-03-16T06:27:18.669Z,100006.34
2023-03-16T06:29:46.353Z,99997.41
2023-03-16T06:32:13.978Z,100010.50
2023-03-16T06:34:41.860Z,100009.50
2023-03-16T06:37:09.485Z,100016.47
2023-03-16T06:39:37.362Z,99999.63
2023-03-16T06:42:05.804Z,99999.56
2023-03-16T06:44:33.782Z,100003.88
2023-03-16T06:47:01.378Z,100008.03
2023-03-16T06:49:28.982Z,99991.13
2023-03-16T06:51:56.862Z,99994.19
2023-03-16T06:54:24.674Z,99996.47
2023-03-16T06:56:52.968Z,99989.06
2023-03-16T06:59:21.027Z,99993.91
2023-03-16T07:01:50.422Z,100001.31
2023-03-16T07:04:18.222Z,100003.41
2023-03-16T07:06:45.943Z,99988.84
2023-03-16T07:09:15.211Z,99993.66
2023-03-16T07:11:42.830Z,100001.16
2023-03-16T07:14:10.523Z,100005.81
2023-03-16T07:16:38.174Z,100005.16
2023-03-16T07:19:05.859Z,100003.03
2023-03-16T07:21:39.466Z,99998.97
2023-03-16T07:24:07.346Z,99995.97
2023-03-16T07:26:35.079Z,99986.06
2023-03-16T07:29:05.063Z,99987.59
2023-03-16T07:31:32.817Z,99989.22
2023-03-16T07:34:00.801Z,99979.28
2023-03-16T07:36:28.681Z,100009.22
2023-03-16T07:38:56.486Z,100003.94
2023-03-16T07:41:25.530Z,100005.81
2023-03-16T07:43:53.640Z,100012.22
2023-03-16T07:46:21.332Z,100004.50
2023-03-16T07:48:49.059Z,100014.31
2023-03-16T07:51:16.730Z,100019.69
2023-03-16T07:53:44.462Z,100017.03
2023-03-16T07:56:12.642Z,100018.81
2023-03-16T07:58:41.030Z,100018.72
2023-03-16T08:01:09.583Z,100008.91
2023-03-16T08:03:37.397Z,100015.72
2023-03-16T08:06:06.172Z,100017.91
2023-03-16T08:08:33.947Z,100010.19
2023-03-16T08:11:01.847Z,100006.03
2023-03-16T08:13:30.452Z,100004.41
2023-03-16T08:16:02.222Z,100000.25
2023-03-16T08:18:30.320Z,100002.13
2023-03-16T08:20:58.045Z,99998.41
2023-03-16T08:23:26.674Z,100009.63
2023-03-16T08:25:54.582Z,99992.75
2023-03-16T08:28:23.005Z,99996.19
2023-03-16T08:30:51.188Z,99987.16
2023-03-16T08:33:23.005Z,99986.13
2023-03-16T08:35:51.342Z,99977.66
2023-03-16T08:38:19.733Z,99972.25
2023-03-16T08:40:48.912Z,99981.09
2023-03-16T08:43:17.306Z,99983.31
2023-03-16T08:45:45.083Z,99975.16
2023-03-16T08:48:15.013Z,99984.31
2023-03-16T08:50:43.436Z,99976.75
2023-03-16T08:53:11.212Z,99973.25
2023-03-16T08:55:39.263Z,99975.69
2023-03-16T08:58:07.242Z,99979.09
2023-03-16T09:00:35.840Z,99984.72
2023-03-16T09:03:03.850Z,99978.69
2023-03-16T09:05:31.745Z,99991.22
2023-03-16T09:08:00.311Z,99988.31
2023-03-16T09:10:29.339Z,99989.91
2023-03-16T09:12:57.702Z,99992.22
2023-03-16T09:15:25.538Z,99991.13
2023-03-16T09:17:54.629Z,99997.97
2023-03-16T09:20:26.442Z,99995.94
2023-03-16T09:22:57.230Z,99997.88
2023-03-16T09:25:25.643Z,99996.84
2023-03-16T09:27:54.081Z,99998.78
2023-03-16T09:30:22.007Z,100002.75
2023-03-16T09:32:50.730Z,100001.38
2023-03-16T09:35:19.059Z,100010.38
2023-03-16T09:38:04.839Z,100028.91
2023-03-16T09:40:33.895Z,100011.31
2023-03-16T09:43:02.127Z,100024.97
2023-03-16T09:45:30.141Z,100021.13
2023-03-16T09:47:58.900Z,100018.78
2023-03-16T09:50:30.286Z,100013.78
2023-03-16T09:53:06.114Z,100003.09
2023-03-16T09:55:33.932Z,100012.75
2023-03-16T09:58:02.560Z,100008.09
2023-03-16T10:00:31.035Z,100020.19
2023-03-16T10:02:59.265Z,100012.66
2023-03-16T10:05:27.512Z,100005.03
2023-03-16T10:07:55.365Z,100004.63
2023-03-16T10:10:24.715Z,99993.31
2023-03-16T10:12:52.756Z,99987.88
2023-03-16T10:15:21.254Z,99984.31
2023-03-16T10:17:50.341Z,99988.75
2023-03-16T10:20:18.149Z,99994.06
2023-03-16T10:22:46.538Z,99990.34
2023-03-16T10:25:14.305Z,99988.97
2023-03-16T10:27:42.299Z,100002.09
2023-03-16T10:30:10.170Z,99984.34
2023-03-16T10:32:38.772Z,99988.47
2023-03-16T10:35:07.612Z,99999.25
2023-03-16T10:37:35.431Z,99987.00
2023-03-16T10:40:04.777Z,99978.81
2023-03-16T10:42:32.786Z,99971.22
2023-03-16T10:45:02.680Z,99966.94
2023-03-16T10:47:32.124Z,99961.91
2023-03-16T10:49:59.973Z,99972.91
2023-03-16T10:52:27.779Z,99958.88
2023-03-16T10:54:55.979Z,99959.63
2023-03-16T10:57:24.057Z,99978.97
2023-03-16T10:59:52.620Z,99968.06
2023-03-16T11:02:21.023Z,99961.06
2023-03-16T11:04:49.723Z,99969.06
2023-03-16T11:07:17.803Z,99963.97
2023-03-16T11:09:45.878Z,99956.78
2023-03-16T11:12:14.400Z,99947.88
2023-03-16T11:14:42.399Z,99940.03
2023-03-16T11:17:11.050Z,99935.22
2023-03-16T11:19:38.960Z,99932.00
2023-03-16T11:22:07.024Z,99941.22
2023-03-16T11:24:35.953Z,99941.22
2023-03-16T11:27:03.831Z,99925.25
2023-03-16T11:29:32.812Z,99936.16
2023-03-16T11:32:01.231Z,99921.38
2023-03-16T11:34:29.291Z,99913.66
2023-03-16T11:36:57.784Z,99916.06
2023-03-16T11:39:26.503Z,99916.66
2023-03-16T11:41:54.288Z,99918.97
2023-03-16T11:44:22.601Z,99903.59
2023-03-16T11:47:01.102Z,99904.88
2023-03-16T11:49:30.215Z,99895.84
2023-03-16T11:51:59.977Z,99891.13
2023-03-16T11:54:35.353Z,99879.06
2023-03-16T11:57:09.076Z,99880.00
2023-03-16T11:59:37.559Z,99872.03
2023-03-16T12:02:05.397Z,99870.53
2023-03-16T12:04:33.522Z,99870.41
2023-03-16T12:07:01.507Z,99875.81
2023-03-16T12:09:29.511Z,99868.16
2023-03-16T12:11:57.834Z,99865.81
2023-03-16T12:14:25.569Z,99867.91
2023-03-16T12:16:53.602Z,99854.16
2023-03-16T12:19:22.071Z,99855.94
2023-03-16T12:21:50.613Z,99851.72
2023-03-16T12:24:18.369Z,99840.69
2023-03-16T12:26:46.182Z,99846.34
2023-03-16T12:29:14.186Z,99827.69
2023-03-16T12:31:42.211Z,99810.03
2023-03-16T12:34:10.548Z,99800.09
2023-03-16T12:36:39.144Z,99802.44
2023-03-16T12:39:07.299Z,99782.75
2023-03-16T12:41:35.368Z,99767.31
2023-03-16T12:44:04.289Z,99769.56
2023-03-16T12:46:32.764Z,99762.53
2023-03-16T12:49:01.463Z,99760.25
2023-03-16T12:51:29.324Z,99759.50
2023-03-16T12:53:59.387Z,99759.97
2023-03-16T12:56:27.244Z,99753.59
2023-03-16T12:58:56.296Z,99748.16
2023-03-16T13:01:25.185Z,99752.94
2023-03-16T13:03:53.141Z,99755.44
2023-03-16T13:06:21.405Z,99754.31
2023-03-16T13:08:49.652Z,99758.47
2023-03-16T13:11:18.601Z,99741.38
2023-03-16T13:13:46.847Z,99735.94
2023-03-16T13:16:14.731Z,99734.81
2023-03-16T13:18:45.382Z,99733.97
2023-03-16T13:21:13.194Z,99727.47
2023-03-16T13:23:41.913Z,99723.69
2023-03-16T13:26:10.599Z,99725.09
2023-03-16T13:28:39.165Z,99716.81
2023-03-16T13:31:07.120Z,99716.25
2023-03-16T13:33:36.988Z,99718.47
2023-03-16T13:36:05.473Z,99726.59
2023-03-16T13:38:33.989Z,99707.50
2023-03-16T13:41:01.844Z,99698.06
2023-03-16T13:43:30.220Z,99704.13
2023-03-16T13:45:58.780Z,99703.56
2023-03-16T13:48:27.030Z,99698.81
2023-03-16T13:50:57.920Z,99685.84
2023-03-16T13:53:26.190Z,99679.81
2023-03-16T13:55:54.797Z,99683.59
2023-03-16T13:58:22.597Z,99681.56
2023-03-16T14:00:51.077Z,99678.41
2023-03-16T14:03:19.562Z,99661.22
2023-03-16T14:05:47.768Z,99649.38
2023-03-16T14:08:15.753Z,99650.72
2023-03-16T14:10:43.954Z,99634.22
2023-03-16T14:13:12.598Z,99623.50
2023-03-16T14:15:41.248Z,99635.09
2023-03-16T14:18:09.845Z,99631.41
2023-03-16T14:20:41.655Z,99622.72
2023-03-16T14:23:09.851Z,99626.75
2023-03-16T14:25:38.386Z,99612.91
2023-03-16T14:28:06.761Z,99619.56
2023-03-16T14:30:34.915Z,99621.56
2023-03-16T14:33:02.816Z,99607.44
2023-03-16T14:35:31.547Z,99599.94
2023-03-16T14:38:00.198Z,99589.22
2023-03-16T14:40:28.655Z,99590.16
2023-03-16T14:42:56.878Z,99601.63
2023-03-16T14:45:24.888Z,99583.94
2023-03-16T14:47:53.951Z,99585.41
2023-03-16T14:50:22.286Z,99592.34
2023-03-16T14:52:51.704Z,99582.00
2023-03-16T14:55:19.595Z,99577.31
2023-03-16T14:57:47.451Z,99580.59
2023-03-16T15:00:15.786Z,99580.41
2023-03-16T15:02:44.729Z,99562.63
2023-03-16T15:05:13.327Z,99562.91
2023-03-16T15:07:41.781Z,99556.28
2023-03-16T15:10:10.622Z,99542.38
2023-03-16T15:12:38.920Z,99536.41
2023-03-16T15:15:19.497Z,99534.25
2023-03-16T15:17:47.510Z,99524.75
2023-03-16T15:20:15.858Z,99532.56
2023-03-16T15:22:43.860Z,99528.56
2023-03-16T15:25:11.759Z,99513.00
2023-03-16T15:27:40.707Z,99503.84
2023-03-16T15:30:08.958Z,99498.94
2023-03-16T17:19:35.339Z,99496.59
2023-03-16T17:22:03.417Z,99488.56
2023-03-16T17:24:31.687Z,99496.47
2023-03-16T17:27:00.414Z,99493.75
2023-03-16T17:29:28.260Z,99483.91
2023-03-16T17:31:56.854Z,99487.09
2023-03-16T17:34:25.008Z,99481.47
2023-03-16T17:36:52.858Z,99485.69
2023-03-16T17:39:21.259Z,99480.91
2023-03-16T17:41:49.375Z,99482.00
2023-03-16T17:44:20.243Z,99479.16
2023-03-16T17:46:48.377Z,99482.19
2023-03-16T17:49:18.213Z,99485.22
2023-03-16T17:51:46.758Z,99486.47
2023-03-16T17:54:14.604Z,99486.13
2023-03-16T17:56:43.271Z,99489.16
2023-03-16T17:59:11.453Z,99487.03
2023-03-16T18:01:39.889Z,99489.91
2023-03-16T18:04:10.001Z,99494.25
2023-03-16T18:06:38.926Z,99478.56
2023-03-16T18:09:08.155Z,99492.84
2023-03-16T18:11:36.337Z,99481.50
2023-03-16T18:14:04.279Z,99486.66
2023-03-16T18:16:32.344Z,99494.63
2023-03-16T18:19:00.504Z,99494.03
2023-03-16T18:21:28.966Z,99490.19
2023-03-16T18:23:57.113Z,99502.78
2023-03-16T18:26:25.346Z,99502.78
2023-03-16T18:28:53.940Z,99494.81
2023-03-16T18:31:22.367Z,99492.84
2023-03-16T18:33:50.870Z,99497.47
2023-03-16T18:36:18.874Z,99494.91
2023-03-16T18:38:46.899Z,99494.31
2023-03-16T18:41:16.146Z,99489.00
2023-03-16T18:43:44.376Z,99501.00
2023-03-16T18:46:13.007Z,99489.75
2023-03-16T18:48:41.079Z,99485.44
2023-03-16T18:51:08.900Z,99486.50
2023-03-16T18:53:36.764Z,99482.44
2023-03-16T18:56:04.773Z,99480.97
2023-03-16T18:58:32.573Z,99477.72
2023-03-16T19:01:00.546Z,99479.66
2023-03-16T19:03:28.561Z,99476.91
2023-03-16T19:05:56.794Z,99481.34
2023-03-16T19:08:24.551Z,99482.06
2023-03-16T19:10:53.615Z,99486.44
2023-03-16T19:13:21.735Z,99475.56
2023-03-16T19:15:49.578Z,99472.63
2023-03-16T19:18:17.417Z,99472.63
2023-03-16T19:20:45.295Z,99458.38
2023-03-16T19:23:13.142Z,99453.81
2023-03-16T19:25:41.548Z,99458.88
2023-03-16T19:28:09.785Z,99448.00
2023-03-16T19:30:37.898Z,99459.34
2023-03-16T19:33:05.985Z,99453.16
2023-03-16T19:35:50.746Z,99454.13
2023-03-16T19:38:19.725Z,99450.78
2023-03-16T19:40:47.611Z,99457.06
2023-03-16T19:43:15.425Z,99452.56
2023-03-16T19:45:43.417Z,99458.88
2023-03-16T19:48:11.662Z,99453.56
2023-03-16T19:50:39.551Z,99452.72
2023-03-16T19:53:08.325Z,99444.75
2023-03-16T19:55:36.870Z,99453.56
2023-03-16T19:58:07.940Z,99447.25
2023-03-16T20:00:36.406Z,99453.44
2023-03-16T20:03:04.326Z,99460.44
2023-03-16T20:05:33.893Z,99448.00
2023-03-16T20:08:01.944Z,99463.34
2023-03-16T20:10:33.108Z,99460.44
2023-03-16T20:13:01.046Z,99462.72
2023-03-16T20:15:29.268Z,99458.25
2023-03-16T20:17:57.410Z,99457.50
2023-03-16T20:20:25.270Z,99446.19
2023-03-16T20:22:55.987Z,99446.19
2023-03-16T20:25:23.979Z,99452.34
2023-03-16T20:27:51.727Z,99440.03
2023-03-16T20:30:19.765Z,99436.41
2023-03-16T20:32:48.117Z,99435.44
2023-03-16T20:35:16.532Z,99431.91
2023-03-16T20:37:44.484Z,99413.47
2023-03-16T20:40:12.308Z,99407.41
2023-03-16T20:42:40.241Z,99409.84
2023-03-16T20:45:09.912Z,99405.25
2023-03-16T20:47:39.076Z,99403.16
2023-03-16T20:50:06.861Z,99397.84
2023-03-16T20:52:34.818Z,99405.44
2023-03-16T20:55:05.479Z,99390.94
2023-03-16T20:57:33.429Z,99381.72
2023-03-16T21:00:02.443Z,99378.97
2023-03-16T21:02:30.323Z,99377.00
2023-03-16T21:04:58.296Z,99379.53
2023-03-16T21:07:26.217Z,99379.16
2023-03-16T21:09:54.038Z,99371.88
2023-03-16T21:12:22.538Z,99372.59
2023-03-16T21:14:50.400Z,99360.16
2023-03-16T21:17:19.341Z,99364.50
2023-03-16T21:19:47.083Z,99351.22
2023-03-16T21:22:15.046Z,99372.34
2023-03-16T21:24:43.636Z,99347.44
2023-03-16T21:27:11.752Z,99363.41
2023-03-16T21:29:39.598Z,99354.56
2023-03-16T21:32:08.252Z,99368.72
2023-03-16T21:34:36.229Z,99364.09
2023-03-16T21:37:05.198Z,99350.81
2023-03-16T21:39:33.526Z,99327.00
2023-03-16T21:42:01.680Z,99334.28
2023-03-16T21:44:29.552Z,99324.50
2023-03-16T21:46:57.456Z,99335.97
2023-03-16T21:49:25.629Z,99332.47
2023-03-16T21:51:53.510Z,99333.31
2023-03-16T21:54:21.344Z,99328.72
2023-03-16T21:56:50.497Z,99336.69
2023-03-16T21:59:18.319Z,99329.66
2023-03-16T22:02:01.153Z,99328.72
2023-03-16T22:04:29.789Z,99323.13
2023-03-16T22:06:57.762Z,99319.50
2023-03-16T22:09:30.288Z,99303.56
2023-03-16T22:11:58.761Z,99302.84
2023-03-16T22:14:27.419Z,99299.91
2023-03-16T22:16:55.700Z,99285.41
2023-03-16T22:19:23.586Z,99280.91
2023-03-16T22:21:51.476Z,99291.41
2023-03-16T22:24:19.762Z,99279.56
2023-03-16T22:26:48.937Z,99288.09
2023-03-16T22:29:16.966Z,99275.63
2023-03-16T22:31:44.693Z,99276.50
2023-03-16T22:34:12.555Z,99275.75
2023-03-16T22:36:40.581Z,99281.22
2023-03-16T22:39:08.912Z,99265.97
2023-03-16T22:41:36.621Z,99273.97
2023-03-16T22:44:04.768Z,99274.09
2023-03-16T22:46:32.487Z,99270.59
2023-03-16T22:49:01.134Z,99274.09
2023-03-16T22:51:28.851Z,99276.03
2023-03-16T22:53:56.561Z,99277.59
2023-03-16T22:56:24.538Z,99281.66
2023-03-16T22:58:52.262Z,99285.06
2023-03-16T23:01:20.339Z,99278.75
2023-03-16T23:03:48.054Z,99280.69
2023-03-16T23:06:16.400Z,99260.97
2023-03-16T23:08:44.095Z,99260.56
2023-03-16T23:11:12.110Z,99253.31
2023-03-16T23:13:40.109Z,99246.31
2023-03-16T23:16:07.933Z,99247.41
2023-03-16T23:18:36.596Z,99241.66
2023-03-16T23:21:04.278Z,99248.06
2023-03-16T23:23:32.039Z,99243.72
2023-03-16T23:25:59.985Z,99254.81
2023-03-16T23:28:28.178Z,99276.50
2023-03-16T23:30:55.763Z,99275.28
2023-03-16T23:33:23.478Z,99261.69
2023-03-16T23:35:51.390Z,99261.44
2023-03-16T23:38:19.592Z,99271.94
2023-03-16T23:40:47.322Z,99267.59
2023-03-16T23:43:14.956Z,99262.03
2023-03-16T23:45:42.782Z,99258.63
2023-03-16T23:48:10.634Z,99255.03
2023-03-16T23:50:38.986Z,99254.88
2023-03-16T23:53:06.997Z,99260.94
2023-03-16T23:55:34.695Z,99265.41
2023-03-16T23:58:02.967Z,99260.94
